Time;durP1;ratioP1;P1;durP2;ratioP2;P2;SDS_P1;SDS_P2;PMS_P1;PMS_P2;Temp;Humidity;BMP_temperature;BMP_pressure;BME280_temperature;BME280_humidity;BME280_pressure;Samples;Min_cycle;Max_cycle;Signal;HPM_P1;HPM_P2
2022/01/01 00:02:00;;;;;;;57.53;29.32;;;;;;;0.80;81.09;100065.92;1724962;81;21199;-56
2022/01/01 00:05:09;;;;;;;51.60;26.25;;;;;;;0.83;80.90;100061.64;1723290;80;21756;-55
2022/01/01 00:08:16;;;;;;;48.80;25.88;;;;;;;0.85;80.81;100055.65;1693740;82;21233;-56
2022/01/01 00:11:22;;;;;;;49.98;26.25;;;;;;;0.91;80.91;100043.50;1762691;79;21224;-55
2022/01/01 00:14:30;;;;;;;50.25;26.85;;;;;;;0.97;80.68;100043.00;1760452;79;21823;-54
2022/01/01 00:17:36;;;;;;;52.70;27.85;;;;;;;0.98;80.61;100038.84;1740563;80;21211;-54
2022/01/01 00:20:41;;;;;;;50.35;26.57;;;;;;;0.98;80.45;100032.61;1756014;79;21271;-54
2022/01/01 00:23:50;;;;;;;49.25;26.37;;;;;;;1.02;80.61;100026.84;1762221;79;21278;-54
2022/01/01 00:26:55;;;;;;;49.50;26.20;;;;;;;1.04;80.42;100016.81;1763419;79;21828;-54
2022/01/01 00:30:01;;;;;;;48.80;26.00;;;;;;;1.02;80.36;100017.41;1761941;79;21213;-54
2022/01/01 00:33:07;;;;;;;49.18;25.57;;;;;;;1.03;80.37;100009.69;1763858;79;21204;-54
2022/01/01 00:36:14;;;;;;;48.78;26.50;;;;;;;1.02;80.36;100002.59;1752921;79;21207;-55
2022/01/01 00:39:20;;;;;;;51.60;27.22;;;;;;;1.02;80.41;99993.16;1753007;79;21188;-55
2022/01/01 00:42:25;;;;;;;51.23;27.07;;;;;;;1.04;80.55;99983.13;1737234;81;21283;-55
2022/01/01 00:45:33;;;;;;;49.45;26.05;;;;;;;1.11;80.66;99975.39;1765868;79;21201;-55
2022/01/01 00:48:40;;;;;;;49.30;26.40;;;;;;;1.15;80.56;99966.92;1720632;81;21214;-54
2022/01/01 00:51:49;;;;;;;50.30;25.25;;;;;;;1.12;80.43;99960.44;1736061;79;21192;-55
2022/01/01 00:54:55;;;;;;;48.15;25.20;;;;;;;1.09;80.52;99955.31;1767241;79;21478;-54
2022/01/01 00:58:03;;;;;;;54.10;27.70;;;;;;;1.14;80.77;99953.06;1738754;81;21243;-54
2022/01/01 01:01:09;;;;;;;48.58;25.50;;;;;;;1.19;80.80;99946.80;1747380;80;21224;-54
2022/01/01 01:04:19;;;;;;;49.55;25.52;;;;;;;1.25;81.06;99938.71;1782954;79;21197;-55
2022/01/01 01:07:27;;;;;;;47.08;24.32;;;;;;;1.37;81.21;99941.23;1783458;80;21862;-54
2022/01/01 01:10:32;;;;;;;47.38;25.23;;;;;;;1.41;81.20;99933.23;1781811;80;21241;-55
2022/01/01 01:13:40;;;;;;;45.03;23.38;;;;;;;1.52;81.29;99930.48;1786287;80;21545;-54
2022/01/01 01:16:47;;;;;;;45.73;24.72;;;;;;;1.62;81.32;99921.64;1785066;80;21785;-54
2022/01/01 01:19:53;;;;;;;44.60;24.70;;;;;;;1.69;81.16;99917.41;1779073;79;21751;-55
2022/01/01 01:22:59;;;;;;;47.95;25.32;;;;;;;1.75;81.13;99916.87;1753498;80;21191;-54
2022/01/01 01:26:08;;;;;;;44.70;23.27;;;;;;;1.76;80.89;99907.30;1770372;79;21709;-55
2022/01/01 01:29:14;;;;;;;54.13;26.77;;;;;;;1.78;80.94;99909.38;1719681;81;21735;-55
2022/01/01 01:32:21;;;;;;;47.67;25.00;;;;;;;1.83;80.94;99895.48;1731680;81;21228;-54
2022/01/01 01:35:26;;;;;;;45.05;25.43;;;;;;;1.88;80.98;99890.55;1749827;81;21225;-54
2022/01/01 01:38:36;;;;;;;45.12;24.70;;;;;;;1.94;81.02;99885.97;1698245;82;21351;-54
2022/01/01 01:41:46;;;;;;;47.88;26.07;;;;;;;1.97;80.83;99874.91;1790977;79;21280;-55
2022/01/01 01:44:54;;;;;;;44.50;23.52;;;;;;;1.96;80.87;99864.63;1788608;80;21208;-53
2022/01/01 01:48:00;;;;;;;45.28;23.12;;;;;;;1.92;81.02;99869.08;1755569;79;21270;-54
2022/01/01 01:51:07;;;;;;;44.25;23.18;;;;;;;1.93;81.22;99860.84;1753052;79;21197;-53
2022/01/01 01:54:13;;;;;;;45.48;23.55;;;;;;;1.97;81.40;99854.17;1762417;80;21746;-53
2022/01/01 01:57:19;;;;;;;47.60;23.90;;;;;;;1.99;81.40;99840.06;1781748;79;21206;-52
2022/01/01 02:03:57;;;;;;;43.30;22.80;;;;;;;1.92;81.56;99835.34;1742588;82;21519;-53
2022/01/01 02:07:05;;;;;;;43.45;23.35;;;;;;;1.94;81.92;99820.72;1774256;79;21279;-53
2022/01/01 02:10:12;;;;;;;46.70;23.42;;;;;;;1.97;82.02;99815.05;1786685;79;21195;-53
2022/01/01 02:13:35;;;;;;;40.20;22.67;;;;;;;2.02;82.17;99812.80;1796937;78;21820;-53
2022/01/01 02:17:24;;;;;;;40.08;21.23;;;;;;;2.04;82.26;99804.56;1764841;81;21538;-54
2022/01/01 02:20:00;;;;;;;39.23;20.77;;;;;;;2.10;82.49;99794.56;1759311;80;21734;-53
2022/01/01 02:23:01;;;;;;;38.73;21.50;;;;;;;2.13;82.40;99787.54;1766349;80;21937;-54
2022/01/01 02:26:11;;;;;;;37.63;20.60;;;;;;;2.11;82.51;99781.45;1766473;79;21201;-55
2022/01/01 02:29:18;;;;;;;34.43;19.05;;;;;;;2.11;82.62;99769.30;1767007;80;21763;-55
2022/01/01 02:32:22;;;;;;;37.60;20.52;;;;;;;2.05;82.74;99769.82;1767331;79;21320;-55
2022/01/01 02:35:28;;;;;;;34.92;20.02;;;;;;;2.04;83.03;99758.69;1769241;79;21347;-55
2022/01/01 02:38:35;;;;;;;30.55;17.37;;;;;;;2.06;83.24;99756.70;1766840;80;21343;-56
2022/01/01 02:41:45;;;;;;;29.60;17.02;;;;;;;2.14;83.58;99750.95;1766119;80;22164;-56
2022/01/01 02:44:54;;;;;;;31.20;18.52;;;;;;;2.24;83.59;99741.05;1766621;80;21852;-56
2022/01/01 02:48:01;;;;;;;29.92;17.55;;;;;;;2.31;83.63;99732.77;1766608;80;21320;-56
2022/01/01 02:51:08;;;;;;;30.82;17.48;;;;;;;2.34;83.42;99716.76;1726121;82;21209;-58
2022/01/01 02:54:13;;;;;;;31.40;17.50;;;;;;;2.36;83.42;99710.73;1737596;80;21409;-58
2022/01/01 02:57:18;;;;;;;24.80;15.13;;;;;;;2.42;83.57;99711.52;1751615;81;21689;-57
2022/01/01 03:00:26;;;;;;;23.18;13.55;;;;;;;2.54;83.72;99710.38;1747301;82;21232;-57
2022/01/01 03:03:34;;;;;;;24.12;14.40;;;;;;;2.63;83.78;99694.16;1785056;80;21709;-56
2022/01/01 03:06:43;;;;;;;21.65;13.32;;;;;;;2.68;83.61;99692.41;1797716;78;21188;-55
2022/01/01 03:09:51;;;;;;;20.82;13.45;;;;;;;2.74;83.50;99687.78;1808379;79;21211;-55
2022/01/01 03:12:56;;;;;;;22.75;13.20;;;;;;;2.76;83.40;99686.63;1808477;79;21216;-55
2022/01/01 03:16:01;;;;;;;22.32;13.98;;;;;;;2.80;83.23;99684.01;1807841;79;21188;-54
2022/01/01 03:19:09;;;;;;;21.85;13.40;;;;;;;2.79;83.08;99670.12;1799643;79;21196;-55
2022/01/01 03:22:14;;;;;;;19.65;12.50;;;;;;;2.82;83.15;99660.89;1797475;79;21216;-54
2022/01/01 03:25:20;;;;;;;23.12;13.20;;;;;;;2.88;83.16;99661.66;1801100;79;21865;-54
2022/01/01 03:28:25;;;;;;;22.15;13.03;;;;;;;2.92;83.15;99663.92;1800444;79;21169;-54
2022/01/01 03:31:31;;;;;;;23.18;13.43;;;;;;;2.98;83.03;99666.55;1785569;79;21398;-54
2022/01/01 03:34:36;;;;;;;21.37;13.10;;;;;;;3.02;82.99;99666.11;1790163;79;21327;-55
2022/01/01 03:37:44;;;;;;;22.17;13.20;;;;;;;3.08;82.96;99662.81;1788131;79;21330;-55
2022/01/01 03:40:49;;;;;;;20.70;12.18;;;;;;;3.12;82.78;99651.22;1789631;79;21323;-59
2022/01/01 03:43:55;;;;;;;21.57;12.98;;;;;;;3.16;82.73;99656.67;1791678;79;21371;-56
2022/01/01 03:47:09;;;;;;;24.35;12.45;;;;;;;3.18;82.47;99646.57;1776194;79;21430;-54
2022/01/01 03:50:11;;;;;;;21.02;11.85;;;;;;;3.18;82.36;99646.57;1780993;79;21421;-54
2022/01/01 03:53:18;;;;;;;17.85;11.38;;;;;;;3.20;82.33;99643.23;1768694;80;21202;-54
2022/01/01 03:56:24;;;;;;;19.77;12.30;;;;;;;3.21;82.20;99634.10;1756912;80;21713;-54
2022/01/01 03:59:30;;;;;;;19.95;11.73;;;;;;;3.20;82.14;99620.73;1768620;80;21323;-54
2022/01/01 04:02:39;;;;;;;20.90;12.47;;;;;;;3.18;82.12;99619.53;1768180;80;21821;-54
2022/01/01 04:05:48;;;;;;;19.10;12.07;;;;;;;3.15;82.10;99613.07;1768187;80;21318;-55
2022/01/01 04:08:54;;;;;;;19.27;12.25;;;;;;;3.15;82.24;99606.80;1768561;80;21386;-55
2022/01/01 04:11:59;;;;;;;20.40;12.25;;;;;;;3.16;82.34;99606.66;1768296;80;21864;-55
2022/01/01 04:15:06;;;;;;;21.33;13.83;;;;;;;3.18;82.30;99608.72;1768054;80;21187;-56
2022/01/01 04:18:19;;;;;;;24.37;14.45;;;;;;;3.12;82.31;99615.21;1758841;80;21347;-55
2022/01/01 04:21:22;;;;;;;27.58;15.63;;;;;;;3.09;82.44;99616.38;1767982;80;21737;-55
2022/01/01 04:24:33;;;;;;;23.67;15.13;;;;;;;3.09;82.55;99613.14;1768244;80;21194;-55
2022/01/01 04:27:40;;;;;;;28.23;14.73;;;;;;;3.10;82.59;99604.55;1767843;80;21347;-56
2022/01/01 04:30:46;;;;;;;25.08;14.83;;;;;;;3.09;82.64;99604.20;1768611;79;21209;-56
2022/01/01 04:33:54;;;;;;;26.02;14.68;;;;;;;3.11;82.73;99598.65;1767779;80;21177;-56
2022/01/01 04:37:04;;;;;;;24.35;14.25;;;;;;;3.12;82.75;99590.39;1767701;80;21347;-57
2022/01/01 04:40:12;;;;;;;24.32;14.95;;;;;;;3.11;82.77;99584.61;1767538;80;21845;-56
2022/01/01 04:43:19;;;;;;;24.45;14.70;;;;;;;3.13;82.81;99582.62;1767903;80;21241;-56
2022/01/01 04:46:25;;;;;;;26.40;15.55;;;;;;;3.14;82.81;99588.36;1767430;80;21370;-55
2022/01/01 04:49:31;;;;;;;25.23;15.28;;;;;;;3.14;82.89;99584.83;1767532;81;21315;-55
2022/01/01 04:52:37;;;;;;;30.60;17.00;;;;;;;3.18;82.94;99588.92;1767638;80;21346;-57
2022/01/01 04:55:43;;;;;;;26.70;15.43;;;;;;;3.19;82.97;99588.78;1767139;79;21265;-56
2022/01/01 04:58:49;;;;;;;29.20;16.85;;;;;;;3.21;82.93;99586.78;1790425;78;21348;-55
2022/01/01 05:01:54;;;;;;;30.92;17.60;;;;;;;3.20;82.91;99590.98;1793975;79;21590;-55
2022/01/01 05:05:01;;;;;;;31.48;18.15;;;;;;;3.21;82.98;99585.43;1783755;79;21789;-55
2022/01/01 05:08:07;;;;;;;29.92;16.90;;;;;;;3.25;83.01;99581.94;1794644;79;21218;-55
2022/01/01 05:11:14;;;;;;;30.02;18.52;;;;;;;3.27;82.97;99579.94;1794108;79;21254;-56
2022/01/01 05:14:21;;;;;;;33.38;17.45;;;;;;;3.28;83.01;99577.09;1794249;80;21182;-55
2022/01/01 05:17:27;;;;;;;29.07;17.45;;;;;;;3.32;83.03;99580.31;1797031;79;21667;-55
2022/01/01 05:20:33;;;;;;;30.65;16.55;;;;;;;3.33;83.02;99573.41;1740286;82;21429;-55
2022/01/01 05:23:39;;;;;;;26.48;15.93;;;;;;;3.34;82.98;99561.61;1765409;81;21240;-54
2022/01/01 05:26:45;;;;;;;29.98;17.05;;;;;;;3.34;82.93;99567.51;1745117;81;21255;-54
2022/01/01 05:29:50;;;;;;;28.45;16.07;;;;;;;3.35;82.92;99557.02;1783298;79;21327;-56
2022/01/01 05:32:55;;;;;;;26.85;16.05;;;;;;;3.37;82.99;99564.01;1775159;80;21686;-55
2022/01/01 05:36:00;;;;;;;27.25;15.45;;;;;;;3.40;83.05;99552.02;1768191;80;21233;-55
2022/01/01 05:39:08;;;;;;;25.85;15.53;;;;;;;3.45;83.05;99549.23;1810425;79;21190;-55
2022/01/01 05:42:16;;;;;;;28.40;16.57;;;;;;;3.46;82.97;99560.88;1811377;79;21233;-55
2022/01/01 05:45:25;;;;;;;26.62;15.65;;;;;;;3.46;82.96;99554.98;1810329;79;21188;-56
2022/01/01 05:48:30;;;;;;;29.50;17.17;;;;;;;3.50;82.98;99551.48;1799961;79;21213;-55
2022/01/01 05:51:36;;;;;;;28.50;17.20;;;;;;;3.54;82.97;99546.09;1809341;79;21737;-55
2022/01/01 05:54:41;;;;;;;70.92;44.83;;;;;;;3.57;82.91;99546.66;1803952;79;21308;-56
2022/01/01 05:57:47;;;;;;;49.33;32.95;;;;;;;3.58;82.89;99549.73;1790677;79;21220;-55
2022/01/01 06:00:52;;;;;;;34.30;22.00;;;;;;;3.62;82.88;99547.05;1777730;79;21410;-56
2022/01/01 06:03:59;;;;;;;27.05;16.37;;;;;;;3.67;82.87;99547.94;1756152;80;21809;-56
2022/01/01 06:07:07;;;;;;;27.00;15.98;;;;;;;3.70;82.81;99534.96;1766209;81;21260;-56
2022/01/01 06:10:13;;;;;;;27.42;16.70;;;;;;;3.73;82.69;99542.77;1767920;79;21734;-56
2022/01/01 06:13:18;;;;;;;29.92;16.40;;;;;;;3.77;82.57;99539.27;1768319;79;22085;-56
2022/01/01 06:16:25;;;;;;;26.17;15.43;;;;;;;3.80;82.54;99522.71;1766640;80;21407;-56
2022/01/01 06:19:31;;;;;;;25.92;16.25;;;;;;;3.82;82.34;99528.83;1733296;80;21570;-55
2022/01/01 06:22:37;;;;;;;24.07;14.90;;;;;;;3.83;82.31;99525.97;1767448;80;21162;-55
2022/01/01 06:25:43;;;;;;;28.77;16.30;;;;;;;3.84;82.27;99520.89;1767886;80;21260;-55
2022/01/01 06:28:49;;;;;;;28.50;15.43;;;;;;;3.87;82.27;99517.05;1766974;80;21209;-55
2022/01/01 06:31:55;;;;;;;23.18;14.03;;;;;;;3.92;82.28;99512.85;1769052;80;21225;-55
2022/01/01 06:35:01;;;;;;;26.42;13.62;;;;;;;3.96;82.20;99519.67;1769293;80;21395;-54
2022/01/01 06:38:08;;;;;;;17.37;11.35;;;;;;;3.96;82.17;99518.32;1768034;80;21726;-55
2022/01/01 06:41:24;;;;;;;20.60;12.05;;;;;;;3.97;82.19;99526.78;1767146;80;21870;-56
2022/01/01 06:44:29;;;;;;;18.23;11.83;;;;;;;3.99;82.23;99525.27;1781965;79;21398;-56
2022/01/01 06:47:34;;;;;;;17.57;11.70;;;;;;;4.02;82.36;99519.54;1778454;79;21670;-56
2022/01/01 06:50:42;;;;;;;18.52;11.78;;;;;;;4.05;82.44;99524.64;1758156;80;21852;-56
2022/01/01 06:53:49;;;;;;;18.42;12.13;;;;;;;4.11;82.41;99523.52;1771783;79;21359;-56
2022/01/01 06:56:54;;;;;;;19.15;11.97;;;;;;;4.14;82.39;99522.34;1756834;81;21362;-56
2022/01/01 06:59:59;;;;;;;18.65;12.03;;;;;;;4.18;82.32;99518.33;1758394;80;21466;-55
2022/01/01 07:03:05;;;;;;;17.27;11.45;;;;;;;4.23;82.29;99512.77;1776355;80;21342;-56
2022/01/01 07:06:12;;;;;;;22.02;14.55;;;;;;;4.27;82.19;99511.96;1779707;80;21227;-59
2022/01/01 07:09:18;;;;;;;26.12;15.23;;;;;;;4.30;82.15;99513.86;1790810;78;21215;-56
2022/01/01 07:12:24;;;;;;;23.87;14.50;;;;;;;4.30;82.05;99515.22;1790185;78;21945;-56
2022/01/01 07:15:32;;;;;;;19.48;12.13;;;;;;;4.27;82.08;99511.47;1790322;79;21232;-56
2022/01/01 07:18:38;;;;;;;18.75;11.85;;;;;;;4.24;82.08;99510.44;1807460;79;21193;-57
2022/01/01 07:21:45;;;;;;;16.75;10.80;;;;;;;4.18;82.17;99512.42;1798843;79;21574;-58
2022/01/01 07:24:52;;;;;;;19.27;11.10;;;;;;;4.16;82.42;99514.42;1799347;79;21725;-58
2022/01/01 07:27:57;;;;;;;17.07;10.53;;;;;;;4.16;82.60;99511.72;1799388;79;21193;-57
2022/01/01 07:31:04;;;;;;;21.62;11.50;;;;;;;4.20;82.78;99517.16;1798898;79;21192;-59
2022/01/01 07:34:13;;;;;;;25.00;13.03;;;;;;;4.21;82.89;99508.05;1799899;79;21322;-57
2022/01/01 07:37:17;;;;;;;23.73;12.25;;;;;;;4.26;83.02;99517.91;1807559;79;21193;-57
2022/01/01 07:40:24;;;;;;;22.35;11.55;;;;;;;4.33;83.13;99521.67;1807498;79;21577;-58
2022/01/01 07:43:30;;;;;;;23.10;12.98;;;;;;;4.34;83.11;99511.17;1807275;79;21788;-60
2022/01/01 07:46:35;;;;;;;29.72;15.08;;;;;;;4.37;83.28;99518.14;1799155;79;21247;-60
2022/01/01 07:49:43;;;;;;;17.98;10.85;;;;;;;4.43;83.46;99513.45;1808016;79;21207;-61
2022/01/01 07:52:49;;;;;;;16.55;9.83;;;;;;;4.45;83.71;99515.50;1809337;79;21680;-61
2022/01/01 07:55:55;;;;;;;14.87;10.65;;;;;;;4.42;84.03;99524.77;1809039;79;21249;-60
2022/01/01 07:59:02;;;;;;;14.50;10.18;;;;;;;4.43;84.38;99526.50;1809151;79;21215;-61
2022/01/01 08:02:10;;;;;;;15.03;9.58;;;;;;;4.47;84.72;99523.80;1800108;79;21220;-61
2022/01/01 08:05:17;;;;;;;16.73;10.43;;;;;;;4.54;84.99;99534.37;1806893;79;21347;-61
2022/01/01 08:08:25;;;;;;;14.68;10.43;;;;;;;4.63;85.18;99522.23;1809496;79;21322;-61
2022/01/01 08:11:34;;;;;;;21.57;13.83;;;;;;;4.70;85.41;99530.91;1765033;81;21872;-60
2022/01/01 08:14:40;;;;;;;19.32;11.80;;;;;;;4.78;85.54;99529.61;1724864;81;21195;-62
2022/01/01 08:17:45;;;;;;;21.17;14.38;;;;;;;4.84;85.60;99535.73;1806739;79;21247;-62
2022/01/01 08:20:50;;;;;;;21.68;15.13;;;;;;;4.89;85.70;99534.76;1797763;79;21282;-61
2022/01/01 08:23:55;;;;;;;18.25;13.00;;;;;;;4.95;85.81;99541.41;1808884;79;21168;-62
2022/01/01 08:27:01;;;;;;;15.90;11.70;;;;;;;4.99;85.95;99533.29;1799895;79;21196;-62
2022/01/01 08:30:06;;;;;;;20.25;15.35;;;;;;;5.05;85.97;99528.56;1773020;80;21734;-62
2022/01/01 08:33:12;;;;;;;20.32;15.10;;;;;;;5.07;86.06;99541.47;1806664;79;22053;-62
2022/01/01 08:36:18;;;;;;;17.92;11.45;;;;;;;5.07;86.15;99527.91;1809355;78;21366;-62
2022/01/01 08:39:24;;;;;;;15.43;10.00;;;;;;;5.10;86.37;99527.58;1799507;79;21336;-63
2022/01/01 08:42:33;;;;;;;15.53;10.80;;;;;;;5.14;86.69;99527.62;1808878;79;21235;-63
2022/01/01 08:45:39;;;;;;;13.38;9.70;;;;;;;5.17;87.10;99526.77;1765059;81;21315;-63
2022/01/01 08:48:47;;;;;;;16.02;11.43;;;;;;;5.18;87.44;99526.27;1773664;80;21831;-63
2022/01/01 08:51:55;;;;;;;15.53;10.43;;;;;;;5.24;87.79;99530.54;1809189;79;21337;-66
2022/01/01 08:55:03;;;;;;;16.17;11.28;;;;;;;5.29;87.94;99534.11;1795573;79;21784;-62
2022/01/01 08:58:12;;;;;;;13.72;9.60;;;;;;;5.37;88.12;99540.94;1769191;79;21848;-61
2022/01/01 09:01:19;;;;;;;15.53;11.53;;;;;;;5.38;88.14;99535.34;1767828;79;21387;-60
2022/01/01 09:04:26;;;;;;;14.98;10.32;;;;;;;5.39;88.10;99544.34;1793366;79;21327;-62
2022/01/01 09:07:31;;;;;;;13.90;10.10;;;;;;;5.37;88.13;99539.08;1805580;79;21326;-62
2022/01/01 09:10:36;;;;;;;13.40;8.58;;;;;;;5.40;88.14;99542.82;1805387;79;21331;-62
2022/01/01 09:13:44;;;;;;;13.88;9.03;;;;;;;5.46;88.25;99543.52;1805374;79;21180;-61
2022/01/01 09:16:49;;;;;;;16.82;10.75;;;;;;;5.52;88.21;99541.99;1804370;79;21323;-63
2022/01/01 09:19:57;;;;;;;14.83;10.15;;;;;;;5.61;88.09;99543.74;1803390;79;21342;-62
2022/01/01 09:23:02;;;;;;;13.60;9.08;;;;;;;5.66;87.99;99548.17;1804854;79;21153;-63
2022/01/01 09:26:08;;;;;;;13.65;9.68;;;;;;;5.70;87.82;99549.03;1804859;79;21766;-61
2022/01/01 09:29:12;;;;;;;15.72;10.50;;;;;;;5.68;87.56;99550.19;1805392;79;21819;-61
2022/01/01 09:32:20;;;;;;;15.03;10.43;;;;;;;5.64;87.47;99547.48;1805430;79;21730;-60
2022/01/01 09:35:25;;;;;;;13.95;9.70;;;;;;;5.63;87.42;99548.47;1766050;81;21386;-61
2022/01/01 09:38:35;;;;;;;15.32;10.98;;;;;;;5.61;87.35;99554.60;1745692;81;21186;-60
2022/01/01 09:41:42;;;;;;;14.85;10.55;;;;;;;5.59;87.41;99546.63;1772749;81;21212;-61
2022/01/01 09:44:47;;;;;;;13.45;9.85;;;;;;;5.62;87.44;99544.94;1772734;81;21189;-62
2022/01/01 09:47:53;;;;;;;15.08;11.18;;;;;;;5.68;87.43;99544.77;1755730;81;21566;-61
2022/01/01 09:51:00;;;;;;;14.78;10.65;;;;;;;5.68;87.19;99548.83;1773108;81;21267;-60
2022/01/01 09:54:06;;;;;;;13.50;10.15;;;;;;;5.68;87.11;99547.48;1773110;81;21983;-60
2022/01/01 09:57:11;;;;;;;14.60;9.85;;;;;;;5.71;86.97;99548.50;1773039;81;21204;-60
2022/01/01 10:00:22;;;;;;;12.25;9.20;;;;;;;5.69;86.91;99562.77;1730133;81;21729;-60
2022/01/01 10:03:40;;;;;;;12.13;8.83;;;;;;;5.71;86.85;99568.86;1767087;80;21209;-60
2022/01/01 10:06:46;;;;;;;10.60;8.03;;;;;;;5.73;86.77;99575.84;1768658;81;21363;-60
2022/01/01 10:09:54;;;;;;;10.75;8.08;;;;;;;5.74;86.58;99586.21;1769138;81;21854;-58
2022/01/01 10:13:03;;;;;;;10.63;7.35;;;;;;;5.71;86.41;99588.73;1769683;80;21181;-57
2022/01/01 10:16:12;;;;;;;11.48;8.18;;;;;;;5.66;86.22;99582.11;1768823;81;21232;-59
2022/01/01 10:19:18;;;;;;;10.93;8.15;;;;;;;5.62;86.08;99588.86;1768895;81;21358;-59
2022/01/01 10:22:29;;;;;;;11.15;7.83;;;;;;;5.57;86.06;99586.64;1768991;81;21331;-58
2022/01/01 10:28:59;;;;;;;18.02;11.38;;;;;;;5.53;86.08;99593.92;1726377;80;21392;-57
2022/01/01 10:32:20;;;;;;;21.23;12.07;;;;;;;5.50;86.02;99588.83;1792135;79;21224;-57
2022/01/01 10:35:25;;;;;;;50.50;24.98;;;;;;;5.49;86.04;99607.46;1768943;80;21355;-57
2022/01/01 10:38:33;;;;;;;30.20;15.30;;;;;;;5.49;85.98;99600.67;1768231;81;21398;-57
2022/01/01 10:41:44;;;;;;;36.35;18.37;;;;;;;5.49;85.87;99606.97;1769012;81;21391;-57
2022/01/01 10:44:57;;;;;;;44.20;23.12;;;;;;;5.46;85.66;99602.36;1769224;81;21828;-58
2022/01/01 10:51:29;;;;;;;42.93;22.42;;;;;;;5.45;85.64;99612.39;1770467;80;21713;-60
2022/01/01 10:54:35;;;;;;;27.62;17.02;;;;;;;5.50;85.51;99602.40;1769068;80;21169;-60
2022/01/01 10:57:44;;;;;;;15.45;12.45;;;;;;;5.51;85.32;99602.73;1769426;80;21336;-60
2022/01/01 11:00:52;;;;;;;15.13;10.82;;;;;;;5.51;85.31;99617.66;1769143;80;21919;-58
2022/01/01 11:04:02;;;;;;;12.03;8.93;;;;;;;5.51;85.19;99614.45;1772359;80;21836;-57
2022/01/01 11:07:08;;;;;;;9.13;7.25;;;;;;;5.47;85.06;99618.48;1763427;80;21244;-57
2022/01/01 11:10:18;;;;;;;8.03;6.78;;;;;;;5.46;85.00;99637.64;1779543;80;21385;-58
2022/01/01 11:13:24;;;;;;;8.23;5.97;;;;;;;5.42;84.92;99622.72;1779932;80;21877;-58
2022/01/01 11:16:31;;;;;;;9.08;6.00;;;;;;;5.38;84.83;99613.17;1779399;80;21339;-57
2022/01/01 11:19:37;;;;;;;7.42;5.65;;;;;;;5.34;84.87;99617.23;1779568;80;21279;-59
2022/01/01 11:22:42;;;;;;;8.35;5.90;;;;;;;5.32;84.87;99614.69;1779063;80;21706;-59
2022/01/01 11:25:47;;;;;;;7.85;6.12;;;;;;;5.29;84.83;99627.22;1733464;82;21400;-59
2022/01/01 11:28:52;;;;;;;6.03;4.62;;;;;;;5.24;84.88;99617.85;1733833;82;21870;-56
2022/01/01 11:31:58;;;;;;;7.00;4.83;;;;;;;5.26;84.99;99625.33;1733744;82;21353;-56
2022/01/01 11:35:04;;;;;;;9.60;7.03;;;;;;;5.24;84.94;99623.27;1708958;81;21855;-57
2022/01/01 11:38:15;;;;;;;7.53;5.28;;;;;;;5.23;84.91;99633.80;1713800;82;21349;-57
2022/01/01 11:41:22;;;;;;;8.35;5.67;;;;;;;5.22;84.79;99626.64;1734657;82;21222;-58
2022/01/01 11:44:40;;;;;;;7.17;5.17;;;;;;;5.21;84.89;99637.16;1734703;82;21865;-56
2022/01/01 11:47:45;;;;;;;7.35;5.50;;;;;;;5.20;84.83;99643.61;1779770;80;21978;-57
2022/01/01 11:50:51;;;;;;;9.10;6.45;;;;;;;5.20;85.00;99647.69;1779663;80;21299;-57
2022/01/01 11:54:33;;;;;;;11.03;7.37;;;;;;;5.23;85.14;99649.55;1779906;80;21785;-57
2022/01/01 11:57:38;;;;;;;;;;;;;;;5.25;85.08;99661.62;1807982;79;21196;-57
2022/01/01 12:00:47;;;;;;;7.53;5.20;;;;;;;5.21;85.13;99667.01;1809454;79;20280;-57
2022/01/01 12:03:59;;;;;;;7.25;5.37;;;;;;;5.18;85.32;99660.55;1806951;79;21365;-57
2022/01/01 12:07:29;;;;;;;11.30;7.03;;;;;;;5.20;85.47;99669.39;1806944;78;21852;-55
2022/01/01 12:10:41;;;;;;;13.38;7.97;;;;;;;5.23;85.61;99674.48;1763532;81;21358;-56
2022/01/01 12:13:50;;;;;;;10.30;7.72;;;;;;;5.26;85.67;99676.88;1764755;81;21381;-56
2022/01/01 12:16:57;;;;;;;11.15;7.00;;;;;;;5.26;85.54;99683.17;1740945;80;21230;-56
2022/01/01 12:20:06;;;;;;;9.70;6.78;;;;;;;5.23;85.54;99686.70;1735883;81;21196;-56
2022/01/01 12:23:16;;;;;;;8.28;5.67;;;;;;;5.20;85.55;99693.80;1764781;81;21303;-56
2022/01/01 12:26:20;;;;;;;8.90;6.25;;;;;;;5.18;85.62;99689.03;1770578;81;21350;-55
2022/01/01 12:29:31;;;;;;;8.70;6.92;;;;;;;5.15;85.71;99698.35;1765375;80;21221;-55
2022/01/01 12:32:46;;;;;;;7.20;5.53;;;;;;;5.12;85.72;99702.70;1750648;82;21244;-57
2022/01/01 12:35:58;;;;;;;9.83;6.15;;;;;;;5.08;85.75;99705.41;1763853;81;21267;-56
2022/01/01 12:39:09;;;;;;;8.33;6.25;;;;;;;5.06;85.80;99700.63;1754226;80;21728;-56
2022/01/01 12:42:34;;;;;;;8.03;6.58;;;;;;;5.02;85.83;99711.95;1771959;80;21752;-56
2022/01/01 12:45:40;;;;;;;8.58;6.92;;;;;;;5.01;85.94;99721.11;1805494;79;21366;-57
2022/01/01 12:48:46;;;;;;;13.72;8.40;;;;;;;4.93;85.89;99713.73;1805523;79;21231;-58
2022/01/01 12:51:56;;;;;;;11.30;7.90;;;;;;;4.85;86.08;99713.70;1805958;79;21346;-57
2022/01/01 12:55:08;;;;;;;8.48;5.90;;;;;;;4.79;86.23;99714.82;1806909;79;21711;-57
2022/01/01 12:58:16;;;;;;;17.10;9.78;;;;;;;4.72;86.49;99723.21;1804123;79;21209;-59
2022/01/01 13:01:31;;;;;;;14.78;8.75;;;;;;;4.63;86.74;99727.20;1797719;79;21764;-58
2022/01/01 13:04:39;;;;;;;11.38;7.20;;;;;;;4.59;87.08;99733.95;1776923;80;21424;-58
2022/01/01 13:07:48;;;;;;;8.08;5.90;;;;;;;4.55;87.35;99731.70;1657316;85;21213;-57
2022/01/01 13:10:54;;;;;;;15.88;7.50;;;;;;;4.51;87.55;99739.28;1745193;81;21184;-57
2022/01/01 13:14:00;;;;;;;12.37;7.20;;;;;;;4.48;87.81;99740.95;1736565;82;21579;-57
2022/01/01 13:17:05;;;;;;;11.25;7.10;;;;;;;4.44;87.98;99740.88;1746166;81;21222;-57
2022/01/01 13:20:14;;;;;;;13.48;8.00;;;;;;;4.43;88.11;99739.69;1755689;80;21771;-58
2022/01/01 13:23:19;;;;;;;19.00;10.40;;;;;;;4.37;88.20;99746.58;1799479;79;21381;-58
2022/01/01 13:26:25;;;;;;;17.92;9.93;;;;;;;4.35;88.40;99743.16;1800628;79;21589;-59
2022/01/01 13:29:29;;;;;;;14.38;8.18;;;;;;;4.36;88.53;99744.02;1757230;80;21697;-59
2022/01/01 13:32:37;;;;;;;13.18;7.45;;;;;;;4.35;88.62;99756.70;1776594;80;21731;-59
2022/01/01 13:35:43;;;;;;;9.45;6.50;;;;;;;4.30;88.62;99760.37;1767730;80;21210;-58
2022/01/01 13:38:51;;;;;;;10.18;6.92;;;;;;;4.25;88.70;99764.55;1757760;80;21233;-60
2022/01/01 13:42:01;;;;;;;9.08;6.47;;;;;;;4.19;88.82;99759.22;1730590;80;21755;-60
2022/01/01 13:45:12;;;;;;;11.38;7.62;;;;;;;4.16;89.00;99755.46;1767819;81;21900;-59
2022/01/01 13:48:20;;;;;;;10.23;6.25;;;;;;;4.14;89.11;99760.17;1775426;80;21186;-61
2022/01/01 13:51:30;;;;;;;10.58;6.67;;;;;;;4.11;89.24;99757.77;1776386;80;21242;-59
2022/01/01 13:54:37;;;;;;;14.60;8.18;;;;;;;4.10;89.36;99762.84;1776617;80;21184;-62
2022/01/01 13:57:51;;;;;;;11.28;7.87;;;;;;;4.11;89.51;99759.12;1751554;80;21333;-59
2022/01/01 14:01:05;;;;;;;15.45;6.87;;;;;;;4.11;89.61;99767.73;1771085;80;21207;-60
2022/01/01 14:04:13;;;;;;;17.37;8.50;;;;;;;4.10;89.72;99765.55;1767391;81;21234;-60
2022/01/01 14:07:25;;;;;;;9.48;6.75;;;;;;;4.08;89.86;99767.55;1775231;78;21471;-62
2022/01/01 14:10:31;;;;;;;9.93;6.50;;;;;;;4.10;90.00;99783.16;1804276;79;21740;-61
2022/01/01 14:13:45;;;;;;;15.00;8.85;;;;;;;4.11;90.05;99775.37;1760507;80;21185;-61
2022/01/01 14:16:53;;;;;;;11.15;7.85;;;;;;;4.12;90.14;99778.41;1811267;79;21346;-60
2022/01/01 14:19:58;;;;;;;10.00;7.53;;;;;;;4.14;90.24;99776.42;1779246;80;21553;-60
2022/01/01 14:23:05;;;;;;;10.30;6.97;;;;;;;4.18;90.36;99776.48;1803368;79;21385;-60
2022/01/01 14:26:14;;;;;;;11.03;7.67;;;;;;;4.18;90.24;99788.67;1764859;79;21378;-62
2022/01/01 14:29:25;;;;;;;10.65;7.03;;;;;;;4.16;90.21;99792.03;1768294;79;21402;-62
2022/01/01 14:32:31;;;;;;;9.83;7.72;;;;;;;4.15;90.25;99790.33;1767957;79;21336;-62
2022/01/01 14:35:39;;;;;;;9.58;7.08;;;;;;;4.13;90.24;99790.97;1767718;80;21700;-63
2022/01/01 14:38:51;;;;;;;11.45;7.08;;;;;;;4.10;90.30;99785.86;1767430;80;21206;-63
2022/01/01 14:41:58;;;;;;;8.38;6.08;;;;;;;4.10;90.41;99784.51;1767555;80;21402;-61
2022/01/01 14:45:07;;;;;;;10.13;6.20;;;;;;;4.10;90.41;99780.94;1759893;80;21204;-60
2022/01/01 14:48:32;;;;;;;12.03;8.20;;;;;;;4.10;90.46;99776.88;1810792;79;21368;-61